createdAt,value
2018-08-10T00:00:31.442Z,0
2018-08-10T00:01:32.508Z,0
2018-08-10T00:03:49.081Z,0
2018-08-10T00:05:36.967Z,0
2018-08-10T00:06:38.011Z,0
2018-08-10T00:07:38.772Z,0
2018-08-10T00:08:39.507Z,0
2018-08-10T00:09:40.261Z,0
2018-08-10T00:10:41.071Z,0
2018-08-10T00:11:41.820Z,0
2018-08-10T00:12:42.539Z,0
2018-08-10T00:13:43.539Z,0
2018-08-10T00:14:44.299Z,0
2018-08-10T00:15:45.319Z,0
2018-08-10T00:16:46.044Z,0
2018-08-10T00:19:02.635Z,0
2018-08-10T00:20:03.667Z,0
2018-08-10T00:21:04.404Z,0
2018-08-10T00:22:05.186Z,0
2018-08-10T00:23:05.913Z,0
2018-08-10T00:24:07.029Z,0
2018-08-10T00:25:08.016Z,0
2018-08-10T00:26:09.125Z,0
2018-08-10T00:27:10.244Z,0
2018-08-10T00:28:11.024Z,0
2018-08-10T00:29:12.037Z,0
2018-08-10T00:30:13.036Z,0
2018-08-10T00:31:13.801Z,0
2018-08-10T00:32:14.818Z,0
2018-08-10T00:33:15.944Z,0
2018-08-10T00:34:16.676Z,0
2018-08-10T00:35:17.415Z,0
2018-08-10T00:36:18.132Z,0
2018-08-10T00:37:18.865Z,0
2018-08-10T00:38:19.919Z,0
2018-08-10T00:39:20.935Z,0
2018-08-10T00:40:21.655Z,0
2018-08-10T00:41:22.399Z,0
2018-08-10T00:42:23.128Z,0
2018-08-10T00:43:24.156Z,0
2018-08-10T00:44:24.889Z,0
2018-08-10T00:45:25.996Z,0
2018-08-10T00:46:27.094Z,0
2018-08-10T00:47:27.822Z,0
2018-08-10T00:48:28.545Z,0
2018-08-10T00:49:29.298Z,0
2018-08-10T00:50:30.017Z,0
2018-08-10T00:51:30.983Z,0
2018-08-10T00:52:31.718Z,0
2018-08-10T00:54:23.577Z,0
2018-08-10T00:55:24.333Z,0
2018-08-10T00:56:25.108Z,0
2018-08-10T00:57:25.835Z,0
2018-08-10T00:58:26.638Z,0
2018-08-10T00:59:27.368Z,0
2018-08-10T01:00:28.079Z,0
2018-08-10T01:01:29.058Z,0
2018-08-10T01:02:29.774Z,0
2018-08-10T01:03:30.501Z,0
2018-08-10T01:04:31.216Z,0
2018-08-10T01:05:32.191Z,0
2018-08-10T01:06:32.911Z,0
2018-08-10T01:07:33.620Z,0
2018-08-10T01:08:34.342Z,0
2018-08-10T01:10:50.575Z,0
2018-08-10T01:14:23.263Z,0
2018-08-10T01:15:24.266Z,0
2018-08-10T01:16:24.987Z,0
2018-08-10T01:17:25.759Z,0
2018-08-10T01:18:26.486Z,0
2018-08-10T01:19:27.300Z,0
2018-08-10T01:20:27.943Z,0
2018-08-10T01:21:28.661Z,0
2018-08-10T01:22:29.389Z,0
2018-08-10T01:23:30.374Z,0
2018-08-10T01:24:31.083Z,0
2018-08-10T01:25:31.862Z,0
2018-08-10T01:26:32.580Z,0
2018-08-10T01:27:33.298Z,0
2018-08-10T01:28:34.041Z,0
2018-08-10T01:29:34.779Z,0
2018-08-10T01:30:35.545Z,0
2018-08-10T01:31:36.261Z,0
2018-08-10T01:32:36.986Z,0
2018-08-10T01:33:37.720Z,0
2018-08-10T01:34:38.462Z,0
2018-08-10T01:35:39.184Z,0
2018-08-10T01:36:40.652Z,0
2018-08-10T01:37:41.393Z,0
2018-08-10T01:38:42.181Z,0
2018-08-10T01:39:43.458Z,0
2018-08-10T01:40:44.214Z,0
2018-08-10T01:41:45.393Z,0
2018-08-10T01:42:46.502Z,0
2018-08-10T01:43:47.236Z,0
2018-08-10T01:44:48.186Z,0
2018-08-10T01:45:48.938Z,0
2018-08-10T01:46:49.683Z,0
2018-08-10T01:47:50.668Z,0
2018-08-10T01:48:51.453Z,0
2018-08-10T01:49:52.226Z,0
2018-08-10T01:50:53.074Z,0
2018-08-10T01:51:53.799Z,0
2018-08-10T01:52:54.828Z,0
2018-08-10T01:53:55.696Z,0
2018-08-10T01:54:56.417Z,0
2018-08-10T01:55:57.447Z,0
2018-08-10T01:56:58.181Z,0
2018-08-10T01:57:58.895Z,0
2018-08-10T01:58:59.622Z,0
2018-08-10T02:03:46.929Z,0
2018-08-10T02:06:03.268Z,0
2018-08-10T02:08:19.574Z,0
2018-08-10T02:09:20.307Z,0
2018-08-10T02:10:21.038Z,0
2018-08-10T02:11:22.129Z,0
2018-08-10T02:12:23.127Z,0
2018-08-10T02:13:24.118Z,0
2018-08-10T02:14:24.954Z,0
2018-08-10T02:17:56.777Z,0
2018-08-10T02:18:57.503Z,0
2018-08-10T02:19:58.226Z,0
2018-08-10T02:20:58.978Z,0
2018-08-10T02:21:59.691Z,0
2018-08-10T02:23:00.665Z,0
2018-08-10T02:24:01.380Z,0
2018-08-10T02:25:02.107Z,0
2018-08-10T02:26:03.432Z,0
2018-08-10T02:27:04.141Z,0
2018-08-10T02:30:35.968Z,0
2018-08-10T02:31:36.703Z,0
2018-08-10T02:32:37.430Z,0
2018-08-10T02:33:38.193Z,0
2018-08-10T02:34:39.199Z,0
2018-08-10T02:35:39.978Z,0
2018-08-10T02:36:40.703Z,0
2018-08-10T02:37:41.451Z,0
2018-08-10T02:38:42.164Z,0
2018-08-10T02:39:42.887Z,0
2018-08-10T02:40:44.015Z,0
2018-08-10T02:41:45.007Z,0
2018-08-10T02:42:45.743Z,0
2018-08-10T02:43:46.459Z,0
2018-08-10T02:44:47.703Z,0
2018-08-10T02:47:04.032Z,0
2018-08-10T02:48:04.809Z,0
2018-08-10T02:50:21.136Z,0
2018-08-10T02:51:22.321Z,0
2018-08-10T02:52:23.040Z,0
2018-08-10T02:53:23.821Z,0
2018-08-10T02:54:24.588Z,0
2018-08-10T02:55:25.649Z,0
2018-08-10T03:00:13.021Z,0
2018-08-10T03:01:13.885Z,0
2018-08-10T03:02:14.778Z,0
2018-08-10T03:03:15.880Z,0
2018-08-10T03:05:32.317Z,0
2018-08-10T03:06:33.455Z,0
2018-08-10T03:07:34.243Z,0
2018-08-10T03:08:34.996Z,0
2018-08-10T03:09:35.867Z,0
2018-08-10T03:10:36.939Z,0
2018-08-10T03:11:37.754Z,0
2018-08-10T03:12:38.578Z,0
2018-08-10T03:13:39.361Z,0
2018-08-10T03:14:40.090Z,0
2018-08-10T03:16:23.573Z,0
2018-08-10T03:18:26.075Z,0
2018-08-10T03:19:26.862Z,0
2018-08-10T03:21:29.409Z,0
2018-08-10T03:22:30.188Z,0
2018-08-10T03:25:39.040Z,4
2018-08-10T03:26:40.154Z,0
2018-08-10T03:27:41.168Z,4
2018-08-10T03:29:43.704Z,4
2018-08-10T03:30:44.421Z,8
2018-08-10T03:31:45.182Z,8
2018-08-10T03:32:45.968Z,12
2018-08-10T03:33:46.755Z,12
2018-08-10T03:34:47.542Z,16
2018-08-10T03:35:48.275Z,16
2018-08-10T03:37:32.024Z,20
2018-08-10T03:38:32.761Z,24
2018-08-10T03:39:34.207Z,28
2018-08-10T03:40:34.951Z,32
2018-08-10T03:41:35.678Z,40
2018-08-10T03:42:36.415Z,44
2018-08-10T03:43:37.149Z,56
2018-08-10T03:44:38.132Z,60
2018-08-10T03:45:38.865Z,60
2018-08-10T03:46:39.852Z,60
2018-08-10T03:47:40.588Z,68
2018-08-10T03:48:41.299Z,64
2018-08-10T03:49:42.038Z,60
2018-08-10T03:53:14.184Z,68
2018-08-10T03:54:15.189Z,84
2018-08-10T03:55:15.927Z,68
2018-08-10T03:56:16.668Z,52
2018-08-10T03:57:17.391Z,60
2018-08-10T03:58:18.151Z,64
2018-08-10T03:59:18.867Z,100
2018-08-10T04:00:19.986Z,92
2018-08-10T04:01:20.720Z,60
2018-08-10T04:02:21.449Z,52
2018-08-10T04:03:22.167Z,68
2018-08-10T04:04:22.893Z,112
2018-08-10T04:05:23.621Z,108
2018-08-10T04:06:24.338Z,108
2018-08-10T04:07:25.085Z,176
2018-08-10T04:08:25.807Z,184
2018-08-10T04:09:26.540Z,136
2018-08-10T04:10:27.265Z,168
2018-08-10T04:11:27.998Z,236
2018-08-10T04:12:28.729Z,252
2018-08-10T04:13:29.516Z,220
2018-08-10T04:14:30.274Z,260
2018-08-10T04:15:31.002Z,228
2018-08-10T04:16:31.729Z,332
2018-08-10T04:17:32.459Z,288
2018-08-10T04:18:33.233Z,196
2018-08-10T04:19:33.963Z,240
2018-08-10T04:20:34.696Z,236
2018-08-10T04:21:35.423Z,216
2018-08-10T04:22:36.161Z,216
2018-08-10T04:23:37.133Z,176
2018-08-10T04:24:37.884Z,156
2018-08-10T04:25:38.607Z,232
2018-08-10T04:26:39.345Z,156
2018-08-10T04:27:40.076Z,236
2018-08-10T04:28:40.802Z,344
2018-08-10T04:29:41.600Z,388
2018-08-10T04:30:42.306Z,420
2018-08-10T04:31:43.037Z,468
2018-08-10T04:32:43.765Z,536
2018-08-10T04:33:44.841Z,624
2018-08-10T04:34:45.593Z,756
2018-08-10T04:35:46.579Z,820
2018-08-10T04:36:47.300Z,668
2018-08-10T04:37:48.016Z,580
2018-08-10T04:38:48.747Z,484
2018-08-10T04:39:49.486Z,532
2018-08-10T04:40:50.220Z,656
2018-08-10T04:41:51.202Z,596
2018-08-10T04:42:51.914Z,612
2018-08-10T04:43:52.645Z,720
2018-08-10T04:44:53.430Z,508
2018-08-10T04:45:54.148Z,408
2018-08-10T04:46:54.903Z,420
2018-08-10T04:47:55.649Z,396
2018-08-10T04:48:56.374Z,364
2018-08-10T04:49:57.170Z,288
2018-08-10T04:50:57.902Z,264
2018-08-10T04:51:58.880Z,248
2018-08-10T04:52:59.616Z,216
2018-08-10T04:54:00.357Z,240
2018-08-10T04:55:01.529Z,260
2018-08-10T04:56:02.221Z,280
2018-08-10T04:57:02.951Z,320
2018-08-10T04:58:03.688Z,324
2018-08-10T04:59:04.715Z,352
2018-08-10T05:00:05.823Z,300
2018-08-10T05:01:06.598Z,324
2018-08-10T05:02:07.364Z,384
2018-08-10T05:03:08.121Z,388
2018-08-10T05:04:08.850Z,516
2018-08-10T05:05:09.659Z,696
2018-08-10T05:06:10.390Z,1132
2018-08-10T05:07:11.107Z,1308
2018-08-10T05:08:11.828Z,1544
2018-08-10T05:09:12.577Z,1976
2018-08-10T05:10:13.295Z,2236
2018-08-10T05:11:14.026Z,2480
2018-08-10T05:12:14.798Z,2820
2018-08-10T05:13:15.773Z,2300
2018-08-10T05:14:16.505Z,1536
2018-08-10T05:15:17.243Z,2012
2018-08-10T05:16:18.246Z,1964
2018-08-10T05:17:18.961Z,2064
2018-08-10T05:18:19.695Z,2412
2018-08-10T05:19:20.452Z,2624
2018-08-10T05:20:21.180Z,2360
2018-08-10T05:21:22.159Z,2556
2018-08-10T05:22:22.878Z,2904
2018-08-10T05:23:23.880Z,3416
2018-08-10T05:24:24.602Z,3608
2018-08-10T05:25:25.332Z,3364
2018-08-10T05:26:26.062Z,3624
2018-08-10T05:27:26.787Z,4064
2018-08-10T05:28:27.517Z,3036
2018-08-10T05:29:28.295Z,2932
2018-08-10T05:30:29.024Z,3844
2018-08-10T05:31:29.752Z,3616
2018-08-10T05:32:30.490Z,3232
2018-08-10T05:33:31.208Z,2988
2018-08-10T05:34:31.937Z,2920
2018-08-10T05:35:32.660Z,3692
2018-08-10T05:36:33.391Z,3720
2018-08-10T05:37:34.126Z,3176
2018-08-10T05:38:34.854Z,3080
2018-08-10T05:39:35.570Z,3484
2018-08-10T05:40:36.559Z,3324
2018-08-10T05:41:37.278Z,3132
2018-08-10T05:42:38.012Z,2712
2018-08-10T05:43:38.737Z,2496
2018-08-10T05:44:39.482Z,3524
2018-08-10T05:45:40.254Z,3656
2018-08-10T05:46:40.988Z,3788
2018-08-10T05:47:41.719Z,4692
2018-08-10T05:48:42.454Z,4528
2018-08-10T05:49:43.186Z,5216
2018-08-10T05:50:44.210Z,5064
2018-08-10T05:51:44.926Z,4768
2018-08-10T05:52:45.658Z,5396
2018-08-10T05:53:46.416Z,5132
2018-08-10T05:54:47.159Z,5616
2018-08-10T05:55:47.897Z,5336
2018-08-10T05:56:49.016Z,5344
2018-08-10T05:57:49.756Z,8408
2018-08-10T05:58:50.487Z,9504
2018-08-10T05:59:51.214Z,9576
2018-08-10T06:00:51.941Z,9972
2018-08-10T06:01:52.672Z,9184
2018-08-10T06:02:53.404Z,9908
2018-08-10T06:03:54.209Z,11724
2018-08-10T06:04:54.864Z,10068
2018-08-10T06:05:55.597Z,9568
2018-08-10T06:06:56.319Z,11140
2018-08-10T06:07:57.455Z,8684
2018-08-10T06:08:58.182Z,6584
2018-08-10T06:09:58.920Z,6340
2018-08-10T06:10:59.651Z,8544
2018-08-10T06:12:00.685Z,8776
2018-08-10T06:13:01.507Z,8968
2018-08-10T06:14:02.210Z,9160
2018-08-10T06:15:02.958Z,7608
2018-08-10T06:16:03.679Z,5504
2018-08-10T06:17:04.415Z,5952
2018-08-10T06:18:05.160Z,6980
2018-08-10T06:19:05.882Z,8444
2018-08-10T06:20:06.621Z,9152
2018-08-10T06:21:07.357Z,8432
2018-08-10T06:22:08.079Z,8096
2018-08-10T06:23:09.075Z,7632
2018-08-10T06:24:09.798Z,7468
2018-08-10T06:25:10.594Z,7644
2018-08-10T06:26:11.263Z,9592
2018-08-10T06:27:12.242Z,9520
2018-08-10T06:28:12.998Z,8016
2018-08-10T06:29:13.713Z,9184
2018-08-10T06:30:14.829Z,10664
2018-08-10T06:31:15.566Z,11424
2018-08-10T06:32:16.302Z,11248
2018-08-10T06:33:17.046Z,10916
2018-08-10T06:34:17.807Z,9796
2018-08-10T06:35:18.499Z,8808
2018-08-10T06:36:19.242Z,7936
2018-08-10T06:37:19.966Z,8952
2018-08-10T06:38:20.722Z,12172
2018-08-10T06:39:21.461Z,14912
2018-08-10T06:40:22.191Z,16040
2018-08-10T06:41:22.926Z,15368
2018-08-10T06:42:23.655Z,13436
2018-08-10T06:43:24.390Z,12228
2018-08-10T06:44:25.116Z,13320
2018-08-10T06:45:25.861Z,14248
2018-08-10T06:46:26.588Z,12092
2018-08-10T06:47:27.309Z,10740
2018-08-10T06:48:28.058Z,10868
2018-08-10T06:49:28.791Z,8832
2018-08-10T06:50:29.534Z,8732
2018-08-10T06:51:30.251Z,10120
2018-08-10T06:52:30.988Z,10036
2018-08-10T06:53:31.702Z,11000
2018-08-10T06:54:32.455Z,12636
2018-08-10T06:55:33.190Z,14252
2018-08-10T06:56:33.910Z,14392
2018-08-10T06:57:34.650Z,11000
2018-08-10T06:58:35.377Z,9676
2018-08-10T06:59:36.116Z,9492
2018-08-10T07:00:36.879Z,9520
2018-08-10T07:01:37.633Z,10608
2018-08-10T07:02:38.316Z,13372
2018-08-10T07:03:39.051Z,15564
2018-08-10T07:04:39.797Z,17984
2018-08-10T07:05:40.520Z,17192
2018-08-10T07:06:41.247Z,16744
2018-08-10T07:07:42.076Z,15752
2018-08-10T07:08:42.703Z,13516
2018-08-10T07:09:43.434Z,12156
2018-08-10T07:10:44.185Z,11172
2018-08-10T07:11:44.931Z,12620
2018-08-10T07:12:45.658Z,13368
2018-08-10T07:13:46.435Z,10892
2018-08-10T07:14:47.175Z,15392
2018-08-10T07:15:47.895Z,18912
2018-08-10T07:16:48.621Z,15504
2018-08-10T07:17:49.361Z,13520
2018-08-10T07:18:50.085Z,15132
2018-08-10T07:19:50.825Z,18656
2018-08-10T07:20:51.557Z,22144
2018-08-10T07:21:52.323Z,14292
2018-08-10T07:22:53.059Z,12872
2018-08-10T07:23:53.842Z,13780
2018-08-10T07:24:54.573Z,15584
2018-08-10T07:25:55.291Z,16952
2018-08-10T07:26:56.039Z,18464
2018-08-10T07:27:56.759Z,22592
2018-08-10T07:28:57.498Z,21824
2018-08-10T07:29:58.234Z,15128
2018-08-10T07:30:58.960Z,15528
2018-08-10T07:32:00.594Z,18720
2018-08-10T07:33:01.311Z,22944
2018-08-10T07:35:17.633Z,13752
2018-08-10T07:36:18.366Z,11772
2018-08-10T07:37:19.092Z,12720
2018-08-10T07:38:19.910Z,46592
2018-08-10T07:39:20.877Z,14088
2018-08-10T07:41:37.246Z,9964
2018-08-10T07:42:38.277Z,54848
2018-08-10T07:43:39.066Z,55904
2018-08-10T07:44:39.798Z,40736
2018-08-10T07:45:40.537Z,11192
2018-08-10T07:46:41.263Z,45408
2018-08-10T07:47:42.004Z,28800
2018-08-10T07:48:42.734Z,42528
2018-08-10T07:49:43.481Z,29568
2018-08-10T07:50:44.204Z,62624
2018-08-10T07:51:44.940Z,29920
2018-08-10T07:52:45.672Z,76800
2018-08-10T07:53:46.674Z,71808
2018-08-10T07:54:47.412Z,64512
2018-08-10T07:55:48.151Z,61664
2018-08-10T07:56:48.875Z,34848
2018-08-10T07:57:49.616Z,63584
2018-08-10T07:58:50.359Z,66848
2018-08-10T07:59:51.037Z,69664
2018-08-10T08:00:51.823Z,68576
2018-08-10T08:01:52.567Z,68576
2018-08-10T08:02:53.708Z,67680
2018-08-10T08:03:54.447Z,19520
2018-08-10T08:04:55.592Z,21504
2018-08-10T08:05:56.459Z,64416
2018-08-10T08:06:57.234Z,64960
2018-08-10T08:07:57.977Z,67552
2018-08-10T08:08:58.728Z,68768
2018-08-10T08:09:59.505Z,70144
2018-08-10T08:11:00.231Z,70048
2018-08-10T08:12:00.965Z,17296
2018-08-10T08:13:01.950Z,10968
2018-08-10T08:14:02.723Z,10968
2018-08-10T08:15:03.476Z,13092
2018-08-10T08:16:04.629Z,13296
2018-08-10T08:17:05.688Z,68864
2018-08-10T08:18:06.638Z,34528
2018-08-10T08:19:07.291Z,27424
2018-08-10T08:20:08.026Z,79968
2018-08-10T08:21:09.071Z,80672
2018-08-10T08:22:09.854Z,79200
2018-08-10T08:23:10.592Z,17440
2018-08-10T08:24:11.328Z,26816
2018-08-10T08:25:12.127Z,73824
2018-08-10T08:26:12.869Z,68928
2018-08-10T08:27:13.699Z,20832
2018-08-10T08:28:14.332Z,18688
2018-08-10T08:29:15.057Z,77920
2018-08-10T08:30:15.790Z,77216
2018-08-10T08:31:16.780Z,54720
2018-08-10T08:32:17.520Z,30336
2018-08-10T08:33:18.251Z,21728
2018-08-10T08:34:19.235Z,21792
2018-08-10T08:35:19.967Z,62688
2018-08-10T08:36:20.712Z,60160
2018-08-10T08:37:21.448Z,25664
2018-08-10T08:38:22.265Z,72416
2018-08-10T08:39:22.934Z,69056
2018-08-10T08:40:24.055Z,28800
2018-08-10T08:41:24.776Z,20896
2018-08-10T08:42:25.514Z,26400
2018-08-10T08:43:26.244Z,22656
2018-08-10T08:44:26.982Z,47360
2018-08-10T08:45:27.814Z,26720
2018-08-10T08:46:28.724Z,16308
2018-08-10T08:47:29.181Z,67904
2018-08-10T08:48:29.923Z,73664
2018-08-10T08:49:30.650Z,76800
2018-08-10T08:50:31.375Z,77888
2018-08-10T08:51:32.360Z,48032
2018-08-10T08:52:33.114Z,78688
2018-08-10T08:53:33.840Z,34912
2018-08-10T08:54:34.578Z,73952
2018-08-10T08:55:35.306Z,35232
2018-08-10T08:56:36.447Z,83680
2018-08-10T08:57:37.181Z,79488
2018-08-10T08:58:37.915Z,74848
2018-08-10T08:59:38.637Z,75328
2018-08-10T09:00:39.373Z,32896
2018-08-10T09:01:40.109Z,28000
2018-08-10T09:02:40.840Z,19360
2018-08-10T09:03:41.578Z,23168
2018-08-10T09:04:42.307Z,15052
2018-08-10T09:05:43.040Z,14896
2018-08-10T09:06:43.764Z,25376
2018-08-10T09:07:45.116Z,37408
2018-08-10T09:08:46.293Z,83456
2018-08-10T09:09:47.029Z,12832
2018-08-10T09:10:47.767Z,20032
2018-08-10T09:11:48.494Z,85600
2018-08-10T09:12:49.250Z,83008
2018-08-10T09:13:50.403Z,77184
2018-08-10T09:14:51.138Z,30144
2018-08-10T09:15:51.872Z,60416
2018-08-10T09:16:52.612Z,23264
2018-08-10T09:17:53.345Z,84992
2018-08-10T09:18:54.082Z,80928
2018-08-10T09:19:54.811Z,24800
2018-08-10T09:20:55.547Z,18160
2018-08-10T09:21:56.281Z,61216
2018-08-10T09:22:57.257Z,80128
2018-08-10T09:23:57.994Z,81376
2018-08-10T09:24:58.731Z,40128
2018-08-10T09:25:59.470Z,80608
2018-08-10T09:27:00.216Z,80448
2018-08-10T09:28:00.946Z,81760
2018-08-10T09:29:01.678Z,85440
2018-08-10T09:30:02.428Z,18392
2018-08-10T09:31:03.168Z,58944
2018-08-10T09:32:04.162Z,88224
2018-08-10T09:33:04.884Z,86944
2018-08-10T09:34:05.864Z,54912
2018-08-10T09:35:06.582Z,91136
2018-08-10T09:36:07.316Z,84448
2018-08-10T09:37:08.053Z,89088
2018-08-10T09:38:08.788Z,83456
2018-08-10T09:39:09.525Z,64096
2018-08-10T09:40:10.308Z,89056
2018-08-10T09:41:11.046Z,88832
2018-08-10T09:42:11.824Z,79040
2018-08-10T09:43:12.525Z,89216
2018-08-10T09:44:13.283Z,83072
2018-08-10T09:45:14.017Z,69344
2018-08-10T09:46:14.717Z,78528
2018-08-10T09:47:15.454Z,76896
2018-08-10T09:48:16.241Z,80288
2018-08-10T09:49:16.983Z,84928
2018-08-10T09:50:17.744Z,84704
2018-08-10T09:51:18.471Z,82080
2018-08-10T09:52:19.200Z,81824
2018-08-10T09:53:19.927Z,84704
2018-08-10T09:54:20.657Z,55328
2018-08-10T09:55:21.394Z,92288
2018-08-10T09:56:22.114Z,87392
2018-08-10T09:57:22.844Z,85856
2018-08-10T09:58:23.591Z,82976
2018-08-10T09:59:24.317Z,24160
2018-08-10T10:00:25.291Z,20192
2018-08-10T10:01:26.037Z,70816
2018-08-10T10:02:26.761Z,21792
2018-08-10T10:03:27.496Z,31040
2018-08-10T10:04:28.232Z,20128
2018-08-10T10:05:28.962Z,18144
2018-08-10T10:06:29.730Z,16044
2018-08-10T10:07:30.471Z,18592
2018-08-10T10:08:31.293Z,20832
2018-08-10T10:09:32.066Z,18272
2018-08-10T10:10:32.779Z,16612
2018-08-10T10:11:33.753Z,19936
2018-08-10T10:12:34.482Z,21376
2018-08-10T10:13:35.215Z,21760
2018-08-10T10:14:36.192Z,22976
2018-08-10T10:15:36.937Z,85344
2018-08-10T10:16:37.671Z,18916
2018-08-10T10:17:38.404Z,12400
2018-08-10T10:18:39.185Z,11588
2018-08-10T10:19:39.924Z,10880
2018-08-10T10:20:40.657Z,10612
2018-08-10T10:21:41.390Z,11100
2018-08-10T10:22:42.121Z,13016
2018-08-10T10:23:42.841Z,14900
2018-08-10T10:24:43.570Z,16696
2018-08-10T10:25:44.304Z,27200
2018-08-10T10:26:45.039Z,99904
2018-08-10T10:27:45.774Z,87968
2018-08-10T10:28:46.520Z,25984
2018-08-10T10:29:47.256Z,28416
2018-08-10T10:30:48.590Z,19136
2018-08-10T10:31:49.311Z,18304
2018-08-10T10:32:50.303Z,19360
2018-08-10T10:33:51.053Z,19040
2018-08-10T10:34:51.774Z,15932
2018-08-10T10:35:52.522Z,14396
2018-08-10T10:36:53.298Z,12964
2018-08-10T10:37:54.030Z,11164
2018-08-10T10:38:54.766Z,11832
2018-08-10T10:39:55.491Z,16412
2018-08-10T10:40:56.241Z,40480
2018-08-10T10:41:57.024Z,93824
2018-08-10T10:42:57.768Z,85376
2018-08-10T10:43:58.509Z,25696
2018-08-10T10:44:59.275Z,19264
2018-08-10T10:46:00.403Z,15780
2018-08-10T10:47:01.206Z,15820
2018-08-10T10:48:02.205Z,18176
2018-08-10T10:49:03.184Z,22464
2018-08-10T10:50:03.930Z,83808
2018-08-10T10:51:04.736Z,25824
2018-08-10T10:52:05.395Z,23616
2018-08-10T10:53:06.125Z,17344
2018-08-10T10:54:06.866Z,14112
2018-08-10T10:55:07.852Z,14348
2018-08-10T10:56:08.600Z,58784
2018-08-10T10:57:09.331Z,26048
2018-08-10T10:58:10.063Z,98848
2018-08-10T10:59:10.798Z,33312
2018-08-10T11:00:11.532Z,106848
2018-08-10T11:01:12.279Z,105504
2018-08-10T11:02:13.017Z,35616
2018-08-10T11:03:13.799Z,102880
2018-08-10T11:04:14.535Z,94752
2018-08-10T11:05:15.267Z,87968
2018-08-10T11:06:16.258Z,87296
2018-08-10T11:07:16.997Z,88576
2018-08-10T11:08:17.719Z,89792
2018-08-10T11:09:18.590Z,98528
2018-08-10T11:10:19.329Z,100288
2018-08-10T11:11:20.080Z,100160
2018-08-10T11:12:20.828Z,102656
2018-08-10T11:13:21.826Z,95360
2018-08-10T11:14:22.552Z,64128
2018-08-10T11:15:23.273Z,104832
2018-08-10T11:16:24.019Z,64160
2018-08-10T11:17:24.758Z,101696
2018-08-10T11:18:25.505Z,100512
2018-08-10T11:19:26.249Z,101376
2018-08-10T11:20:26.990Z,103104
2018-08-10T11:21:27.738Z,103744
2018-08-10T11:22:28.472Z,24224
2018-08-10T11:23:29.208Z,108256
2018-08-10T11:24:30.205Z,107840
2018-08-10T11:25:31.368Z,105504
2018-08-10T11:26:32.491Z,25760
2018-08-10T11:27:33.219Z,27840
2018-08-10T11:28:33.970Z,92128
2018-08-10T11:29:34.701Z,95104
2018-08-10T11:30:35.492Z,96800
2018-08-10T11:31:36.214Z,97792
2018-08-10T11:32:36.960Z,78976
2018-08-10T11:33:37.708Z,99584
2018-08-10T11:34:38.441Z,106080
2018-08-10T11:35:39.464Z,104000
2018-08-10T11:36:40.196Z,104672
2018-08-10T11:37:40.923Z,105280
2018-08-10T11:38:41.659Z,107904
2018-08-10T11:39:42.399Z,80480
2018-08-10T11:40:43.130Z,103776
2018-08-10T11:41:43.842Z,104768
2018-08-10T11:42:44.783Z,103136
2018-08-10T11:43:45.716Z,102080
2018-08-10T11:44:46.452Z,102880
2018-08-10T11:45:47.692Z,104160
2018-08-10T11:46:48.477Z,105504
2018-08-10T11:47:49.209Z,105536
2018-08-10T11:48:49.945Z,102304
2018-08-10T11:49:50.679Z,102912
2018-08-10T11:50:51.432Z,31840
2018-08-10T11:51:52.160Z,44576
2018-08-10T11:52:52.906Z,32928
2018-08-10T11:53:53.647Z,25920
2018-08-10T11:54:54.677Z,59328
2018-08-10T11:55:55.409Z,86464
2018-08-10T11:56:56.144Z,76544
2018-08-10T11:57:57.139Z,107104
2018-08-10T11:58:58.126Z,106144
2018-08-10T11:59:58.950Z,28416
2018-08-10T12:00:59.673Z,27552
2018-08-10T12:02:00.458Z,37824
2018-08-10T12:03:01.150Z,91520
2018-08-10T12:04:01.878Z,72096
2018-08-10T12:05:02.935Z,92960
2018-08-10T12:06:03.794Z,94048
2018-08-10T12:07:04.387Z,65792
2018-08-10T12:08:05.133Z,107744
2018-08-10T12:09:05.878Z,82048
2018-08-10T12:10:06.608Z,71200
2018-08-10T12:11:07.338Z,104672
2018-08-10T12:12:08.089Z,75200
2018-08-10T12:13:08.818Z,94112
2018-08-10T12:14:09.553Z,22208
2018-08-10T12:15:10.643Z,19360
2018-08-10T12:16:11.385Z,18432
2018-08-10T12:17:12.117Z,44448
2018-08-10T12:18:12.847Z,95136
2018-08-10T12:19:13.611Z,22944
2018-08-10T12:20:14.338Z,20160
2018-08-10T12:21:15.080Z,23712
2018-08-10T12:22:15.823Z,83296
2018-08-10T12:23:16.568Z,96640
2018-08-10T12:24:17.294Z,97248
2018-08-10T12:25:18.046Z,94176
2018-08-10T12:26:18.775Z,86528
2018-08-10T12:27:19.768Z,58464
2018-08-10T12:28:20.805Z,53120
2018-08-10T12:29:21.535Z,24288
2018-08-10T12:30:22.378Z,20512
2018-08-10T12:31:23.075Z,19360
2018-08-10T12:32:23.818Z,20960
2018-08-10T12:33:24.555Z,88672
2018-08-10T12:34:25.565Z,25632
2018-08-10T12:35:26.577Z,32768
2018-08-10T12:36:27.295Z,20352
2018-08-10T12:37:28.270Z,20352
2018-08-10T12:38:29.070Z,94944
2018-08-10T12:39:30.054Z,91872
2018-08-10T12:40:30.820Z,87200
2018-08-10T12:41:31.622Z,86752
2018-08-10T12:42:32.406Z,83136
2018-08-10T12:43:33.094Z,80512
2018-08-10T12:44:33.825Z,77920
2018-08-10T12:45:34.621Z,80288
2018-08-10T12:46:35.370Z,84192
2018-08-10T12:47:36.069Z,83008
2018-08-10T12:48:36.817Z,86144
2018-08-10T12:49:37.566Z,88768
2018-08-10T12:50:38.421Z,79808
2018-08-10T12:51:39.063Z,82528
2018-08-10T12:52:39.835Z,76032
2018-08-10T12:53:40.582Z,73888
2018-08-10T12:54:41.318Z,72000
2018-08-10T12:55:42.315Z,73856
2018-08-10T12:56:43.051Z,12684
2018-08-10T12:57:43.798Z,13528
2018-08-10T12:58:44.547Z,10468
2018-08-10T12:59:45.302Z,9492
2018-08-10T13:00:46.050Z,10180
2018-08-10T13:01:46.795Z,11736
2018-08-10T13:02:47.622Z,13072
2018-08-10T13:03:48.322Z,16804
2018-08-10T13:04:49.486Z,13816
2018-08-10T13:05:50.211Z,44608
2018-08-10T13:06:50.954Z,15256
2018-08-10T13:07:51.690Z,17472
2018-08-10T13:08:52.426Z,30432
2018-08-10T13:09:53.159Z,27872
2018-08-10T13:10:53.889Z,94912
2018-08-10T13:11:54.668Z,28864
2018-08-10T13:12:55.413Z,56576
2018-08-10T13:13:56.148Z,26560
2018-08-10T13:14:56.894Z,79136
2018-08-10T13:15:57.620Z,33216
2018-08-10T13:16:58.355Z,18720
2018-08-10T13:17:59.147Z,17564
2018-08-10T13:18:59.887Z,16696
2018-08-10T13:20:00.613Z,17408
2018-08-10T13:21:01.352Z,17208
2018-08-10T13:22:02.085Z,16984
2018-08-10T13:23:02.828Z,18656
2018-08-10T13:24:03.559Z,19104
2018-08-10T13:25:04.313Z,18880
2018-08-10T13:26:05.056Z,20160
2018-08-10T13:27:05.789Z,22016
2018-08-10T13:28:06.549Z,22528
2018-08-10T13:29:07.262Z,21952
2018-08-10T13:30:07.993Z,95456
2018-08-10T13:31:08.730Z,53472
2018-08-10T13:32:09.461Z,21568
2018-08-10T13:33:10.197Z,21248
2018-08-10T13:34:10.930Z,20896
2018-08-10T13:35:11.667Z,21280
2018-08-10T13:36:12.452Z,22432
2018-08-10T13:37:13.185Z,21664
2018-08-10T13:38:14.164Z,22144
2018-08-10T13:39:14.907Z,21344
2018-08-10T13:40:15.635Z,20576
2018-08-10T13:41:16.412Z,22336
2018-08-10T13:42:17.239Z,25696
2018-08-10T13:43:17.937Z,31712
2018-08-10T13:44:18.667Z,29856
2018-08-10T13:45:19.399Z,78752
2018-08-10T13:46:20.133Z,24544
2018-08-10T13:47:20.860Z,19264
2018-08-10T13:48:21.587Z,16668
2018-08-10T13:49:22.320Z,15460
2018-08-10T13:50:23.059Z,15380
2018-08-10T13:51:23.797Z,15492
2018-08-10T13:52:24.540Z,16132
2018-08-10T13:53:25.318Z,16848
2018-08-10T13:54:26.005Z,17280
2018-08-10T13:55:26.739Z,20320
2018-08-10T13:56:27.474Z,51040
2018-08-10T13:57:28.206Z,57120
2018-08-10T13:58:28.941Z,88192
2018-08-10T13:59:30.129Z,77696
2018-08-10T14:00:31.751Z,92416
2018-08-10T14:01:32.931Z,64672
2018-08-10T14:02:33.661Z,88416
2018-08-10T14:03:34.390Z,47072
2018-08-10T14:04:35.133Z,24640
2018-08-10T14:05:35.867Z,79968
2018-08-10T14:06:36.653Z,67104
2018-08-10T14:07:37.337Z,82880
2018-08-10T14:08:38.077Z,76288
2018-08-10T14:09:38.806Z,71488
2018-08-10T14:10:39.549Z,68640
2018-08-10T14:11:40.814Z,71072
2018-08-10T14:12:41.646Z,75200